createdAt,value
2022-09-22T00:01:40.012Z,16.10
2022-09-22T00:04:25.562Z,10.13
2022-09-22T00:07:11.108Z,6.80
2022-09-22T00:09:56.436Z,12.07
2022-09-22T00:12:41.926Z,13.23
2022-09-22T00:15:27.527Z,15.55
2022-09-22T00:18:12.855Z,14.60
2022-09-22T00:20:59.388Z,10.98
2022-09-22T00:23:46.638Z,11.52
2022-09-22T00:26:32.007Z,12.77
2022-09-22T00:29:18.099Z,9.13
2022-09-22T00:32:07.368Z,16.27
2022-09-22T00:34:52.772Z,12.93
2022-09-22T00:37:38.255Z,12.65
2022-09-22T00:40:24.075Z,14.30
2022-09-22T00:43:14.211Z,16.25
2022-09-22T00:46:27.273Z,11.70
2022-09-22T00:49:15.188Z,13.93
2022-09-22T00:52:01.455Z,13.27
2022-09-22T00:54:47.514Z,11.13
2022-09-22T00:57:36.861Z,9.50
2022-09-22T01:00:22.505Z,11.48
2022-09-22T01:03:12.013Z,13.80
2022-09-22T01:06:02.798Z,11.60
2022-09-22T01:08:48.267Z,15.52
2022-09-22T01:11:34.264Z,11.82
2022-09-22T01:14:32.195Z,16.83
2022-09-22T01:17:27.280Z,14.65
2022-09-22T01:20:56.185Z,14.88
2022-09-22T01:23:49.007Z,20.10
2022-09-22T01:26:55.556Z,13.75
2022-09-22T01:29:46.816Z,16.90
2022-09-22T01:32:53.732Z,15.02
2022-09-22T01:35:56.320Z,15.35
2022-09-22T01:39:19.155Z,11.65
2022-09-22T01:42:11.457Z,18.08
2022-09-22T01:45:04.684Z,12.90
2022-09-22T01:48:06.581Z,20.65
2022-09-22T01:51:05.877Z,16.83
2022-09-22T01:53:56.737Z,18.63
2022-09-22T01:56:45.860Z,17.92
2022-09-22T01:59:34.340Z,16.60
2022-09-22T02:02:26.712Z,20.77
2022-09-22T02:05:21.160Z,18.63
2022-09-22T02:08:15.059Z,17.10
2022-09-22T02:11:09.824Z,16.73
2022-09-22T02:13:55.420Z,17.40
2022-09-22T02:16:41.299Z,18.88
2022-09-22T02:19:37.690Z,17.15
2022-09-22T02:22:23.179Z,27.67
2022-09-22T02:25:10.611Z,16.33
2022-09-22T02:27:57.108Z,24.30
2022-09-22T02:31:10.573Z,19.42
2022-09-22T02:33:53.433Z,23.15
2022-09-22T02:36:41.872Z,18.85
2022-09-22T02:39:47.467Z,20.80
2022-09-22T02:42:35.234Z,21.80
2022-09-22T02:45:23.827Z,21.67
2022-09-22T02:48:51.425Z,20.30
2022-09-22T02:51:37.376Z,22.55
2022-09-22T02:54:23.204Z,21.42
2022-09-22T02:57:09.680Z,27.10
2022-09-22T02:59:55.119Z,32.72
2022-09-22T03:02:40.927Z,28.60
2022-09-22T03:05:26.346Z,30.83
2022-09-22T03:08:12.138Z,28.98
2022-09-22T03:10:57.674Z,40.17
2022-09-22T03:13:42.958Z,31.48
2022-09-22T03:16:28.507Z,30.33
2022-09-22T03:19:14.007Z,24.45
2022-09-22T03:21:59.720Z,31.20
2022-09-22T03:24:44.943Z,34.33
2022-09-22T03:27:30.479Z,35.30
2022-09-22T03:30:15.904Z,31.58
2022-09-22T03:33:01.623Z,36.65
2022-09-22T03:35:47.227Z,32.88
2022-09-22T03:38:33.003Z,45.83
2022-09-22T03:41:19.645Z,44.60
2022-09-22T03:44:05.985Z,40.15
2022-09-22T03:46:51.553Z,44.00
2022-09-22T03:49:36.610Z,43.75
2022-09-22T03:52:22.251Z,43.80
2022-09-22T03:55:08.280Z,58.50
2022-09-22T03:57:53.975Z,51.63
2022-09-22T04:00:39.426Z,51.10
2022-09-22T04:03:24.809Z,47.60
2022-09-22T04:06:10.612Z,51.67
2022-09-22T04:08:56.308Z,47.10
2022-09-22T04:11:41.969Z,51.58
2022-09-22T04:14:27.347Z,40.10
2022-09-22T04:17:13.400Z,50.58
2022-09-22T04:19:59.501Z,49.78
2022-09-22T04:22:45.217Z,50.35
2022-09-22T04:25:32.118Z,50.85
2022-09-22T04:28:17.434Z,44.30
2022-09-22T04:31:03.449Z,58.03
2022-09-22T04:33:48.792Z,48.60
2022-09-22T04:36:34.474Z,59.03
2022-09-22T04:39:23.664Z,53.85
2022-09-22T04:42:09.262Z,60.38
2022-09-22T04:44:57.388Z,62.67
2022-09-22T04:47:49.590Z,67.03
2022-09-22T04:50:34.931Z,64.40
2022-09-22T04:53:24.263Z,63.35
2022-09-22T04:56:09.864Z,64.18
2022-09-22T04:58:55.184Z,62.15
2022-09-22T05:01:40.770Z,55.92
2022-09-22T05:04:26.330Z,56.22
2022-09-22T05:07:11.605Z,76.32
2022-09-22T05:09:57.169Z,62.58
2022-09-22T05:12:43.868Z,73.70
2022-09-22T05:15:32.548Z,72.03
2022-09-22T05:18:18.234Z,65.53
2022-09-22T05:21:03.548Z,56.67
2022-09-22T05:23:49.271Z,63.30
2022-09-22T05:26:34.608Z,59.95
2022-09-22T05:29:22.540Z,66.18
2022-09-22T05:32:10.110Z,66.75
2022-09-22T05:34:55.467Z,77.68
2022-09-22T05:37:45.077Z,86.10
2022-09-22T05:40:31.112Z,74.50
2022-09-22T05:43:16.564Z,71.80
2022-09-22T05:46:02.154Z,87.65
2022-09-22T05:48:47.495Z,81.03
2022-09-22T05:51:33.092Z,84.78
2022-09-22T05:54:23.122Z,79.38
2022-09-22T05:57:08.794Z,88.95
2022-09-22T05:59:55.176Z,80.88
2022-09-22T06:02:44.047Z,86.82
2022-09-22T06:05:29.392Z,84.25
2022-09-22T06:08:14.883Z,78.70
2022-09-22T06:11:00.590Z,81.75
2022-09-22T06:13:46.052Z,76.95
2022-09-22T06:16:31.797Z,70.90
2022-09-22T06:19:26.751Z,71.95
2022-09-22T06:22:12.180Z,70.05
2022-09-22T06:24:57.331Z,71.30
2022-09-22T06:27:44.247Z,81.90
2022-09-22T06:30:30.920Z,60.17
2022-09-22T06:33:16.532Z,73.30
2022-09-22T06:36:02.418Z,73.60
2022-09-22T06:38:50.691Z,72.22
2022-09-22T06:41:35.832Z,65.63
2022-09-22T06:44:21.908Z,68.07
2022-09-22T06:47:08.986Z,53.17
2022-09-22T06:49:54.403Z,57.42
2022-09-22T06:52:41.404Z,52.88
2022-09-22T06:55:28.149Z,50.65
2022-09-22T06:58:15.212Z,51.83
2022-09-22T07:01:09.712Z,44.10
2022-09-22T07:03:55.656Z,44.72
2022-09-22T07:06:42.643Z,41.90
2022-09-22T07:09:27.938Z,42.90
2022-09-22T07:12:16.023Z,39.63
2022-09-22T07:15:01.835Z,33.78
2022-09-22T07:17:52.550Z,34.45
2022-09-22T07:20:37.684Z,32.00
2022-09-22T07:23:27.524Z,36.03
2022-09-22T07:26:21.844Z,37.97
2022-09-22T07:29:11.695Z,35.40
2022-09-22T07:31:59.073Z,36.22
2022-09-22T07:34:45.073Z,41.15
2022-09-22T07:37:33.488Z,32.33
2022-09-22T07:40:19.159Z,30.55
2022-09-22T07:43:04.264Z,29.65
2022-09-22T07:45:59.599Z,27.73
2022-09-22T07:48:48.302Z,28.77
2022-09-22T07:51:34.008Z,30.17
2022-09-22T07:54:19.421Z,27.58
2022-09-22T07:57:10.891Z,29.23
2022-09-22T07:59:57.512Z,26.80
2022-09-22T08:02:50.519Z,29.48
2022-09-22T08:05:36.095Z,21.15
2022-09-22T08:08:21.296Z,25.02
2022-09-22T08:11:09.259Z,25.85
2022-09-22T08:14:00.171Z,24.55
2022-09-22T08:16:48.911Z,21.58
2022-09-22T08:19:37.461Z,25.52
2022-09-22T08:22:23.224Z,20.67
2022-09-22T08:25:12.423Z,26.70
2022-09-22T08:28:00.213Z,25.05
2022-09-22T08:30:46.908Z,23.58
2022-09-22T08:33:32.602Z,25.58
2022-09-22T08:36:20.047Z,21.70
2022-09-22T08:39:09.148Z,26.42
2022-09-22T08:42:22.000Z,22.48
2022-09-22T08:45:24.819Z,22.35
2022-09-22T08:48:44.200Z,23.50
2022-09-22T08:51:55.056Z,24.40
2022-09-22T08:54:40.255Z,22.75
2022-09-22T08:57:39.121Z,22.38
2022-09-22T09:00:25.587Z,22.05
2022-09-22T09:03:46.884Z,19.83
2022-09-22T09:06:45.596Z,19.13
2022-09-22T09:09:50.199Z,20.58
2022-09-22T09:12:44.127Z,20.43
2022-09-22T09:15:53.308Z,26.40
2022-09-22T09:18:44.826Z,16.67
2022-09-22T09:21:34.984Z,18.98
2022-09-22T09:27:54.905Z,14.75
2022-09-22T09:30:45.493Z,18.45
2022-09-22T09:33:56.827Z,19.65
2022-09-22T09:36:45.649Z,13.77
2022-09-22T09:39:33.582Z,19.33
2022-09-22T09:42:33.163Z,16.85
2022-09-22T09:45:24.241Z,15.00
2022-09-22T09:48:30.029Z,17.40
2022-09-22T09:51:15.890Z,12.93
2022-09-22T09:54:05.557Z,13.65
2022-09-22T09:57:05.012Z,10.80
2022-09-22T10:00:32.415Z,15.35
2022-09-22T10:03:28.721Z,16.80
2022-09-22T10:06:23.109Z,14.43
2022-09-22T10:09:08.915Z,12.57
2022-09-22T10:12:01.914Z,14.57
2022-09-22T10:14:56.970Z,14.13
2022-09-22T10:17:45.074Z,13.15
2022-09-22T10:20:34.408Z,13.13
2022-09-22T10:23:22.076Z,10.80
2022-09-22T10:26:37.115Z,10.57
2022-09-22T10:29:23.076Z,10.20
2022-09-22T10:32:15.519Z,13.23
2022-09-22T10:35:01.043Z,8.05
2022-09-22T10:37:47.552Z,12.40
2022-09-22T10:40:32.789Z,15.52
2022-09-22T10:43:46.436Z,14.30
2022-09-22T10:46:37.494Z,6.00
2022-09-22T10:49:23.803Z,8.10
2022-09-22T10:52:35.398Z,9.88
2022-09-22T10:55:32.430Z,9.43
2022-09-22T10:58:27.345Z,11.35
2022-09-22T11:01:34.428Z,7.53
2022-09-22T11:04:47.905Z,8.40
2022-09-22T11:08:16.003Z,8.80
2022-09-22T11:11:29.195Z,12.77
2022-09-22T11:14:30.306Z,10.00
2022-09-22T11:17:56.266Z,16.38
2022-09-22T11:20:44.856Z,9.05
2022-09-22T11:23:57.011Z,9.13
2022-09-22T11:26:57.108Z,9.35
2022-09-22T11:30:11.374Z,8.88
2022-09-22T11:33:25.957Z,3.90
2022-09-22T11:36:40.571Z,6.70
2022-09-22T11:39:54.515Z,10.23
2022-09-22T11:42:52.315Z,5.25
2022-09-22T11:46:01.410Z,6.93
2022-09-22T11:49:01.911Z,6.10
2022-09-22T11:52:10.152Z,3.72
2022-09-22T11:55:00.442Z,8.63
2022-09-22T11:57:53.911Z,7.20
2022-09-22T12:00:50.211Z,6.60
2022-09-22T12:04:12.936Z,4.95
2022-09-22T12:07:00.271Z,6.10
2022-09-22T12:09:59.043Z,3.97
2022-09-22T12:12:48.599Z,6.43
2022-09-22T12:16:07.049Z,7.07
2022-09-22T12:19:25.306Z,5.13
2022-09-22T12:22:32.594Z,4.38
2022-09-22T12:25:50.691Z,4.45
2022-09-22T12:28:45.469Z,4.20
2022-09-22T12:31:42.664Z,3.42
2022-09-22T12:34:44.111Z,6.07
2022-09-22T12:37:32.541Z,6.35
2022-09-22T12:40:25.023Z,4.70
2022-09-22T12:43:21.202Z,5.43
2022-09-22T12:46:30.227Z,6.10
2022-09-22T12:49:21.343Z,3.15
2022-09-22T12:52:42.419Z,3.67
2022-09-22T12:55:30.529Z,2.90
2022-09-22T12:58:18.749Z,5.05
2022-09-22T13:01:30.077Z,5.72
2022-09-22T13:04:18.088Z,5.30
2022-09-22T13:07:03.916Z,6.65
2022-09-22T13:09:49.127Z,4.60
2022-09-22T13:12:34.783Z,6.50
2022-09-22T13:15:20.200Z,5.20
2022-09-22T13:18:33.607Z,6.20
2022-09-22T13:21:30.804Z,6.25
2022-09-22T13:24:26.454Z,4.93
2022-09-22T13:27:14.227Z,4.65
2022-09-22T13:29:59.692Z,6.97
2022-09-22T13:32:50.532Z,5.90
2022-09-22T13:35:41.874Z,7.22
2022-09-22T13:38:28.378Z,5.63
2022-09-22T13:41:21.376Z,5.32
2022-09-22T13:44:11.909Z,9.15
2022-09-22T13:47:00.763Z,8.57
2022-09-22T13:50:01.159Z,6.88
2022-09-22T13:52:48.716Z,5.55
2022-09-22T13:55:35.952Z,6.93
2022-09-22T13:58:41.763Z,3.47
2022-09-22T14:01:28.740Z,3.80
2022-09-22T14:04:34.250Z,5.40
2022-09-22T14:07:21.901Z,5.72
2022-09-22T14:10:09.179Z,2.88
2022-09-22T14:12:57.800Z,5.68
2022-09-22T14:15:43.957Z,4.65
2022-09-22T14:18:30.298Z,4.32
2022-09-22T14:21:36.696Z,3.70
2022-09-22T14:24:22.212Z,5.90
2022-09-22T14:27:17.592Z,6.13
2022-09-22T14:30:04.445Z,5.70
2022-09-22T14:32:55.367Z,9.73
2022-09-22T14:35:41.551Z,3.45
2022-09-22T14:38:29.070Z,3.47
2022-09-22T14:41:26.126Z,7.50
2022-09-22T14:44:41.112Z,3.17
2022-09-22T14:47:29.540Z,7.55
2022-09-22T14:50:37.080Z,3.35
2022-09-22T14:53:32.032Z,4.88
2022-09-22T14:56:23.395Z,4.95
2022-09-22T14:59:41.176Z,4.32
2022-09-22T15:02:33.326Z,7.60
2022-09-22T15:05:29.392Z,4.93
2022-09-22T15:08:20.411Z,6.00
2022-09-22T15:11:05.884Z,6.50
2022-09-22T15:13:52.705Z,10.40
2022-09-22T15:16:41.354Z,5.32
2022-09-22T15:19:26.698Z,3.65
2022-09-22T15:22:16.923Z,3.55
2022-09-22T15:25:02.202Z,3.50
2022-09-22T15:27:53.407Z,3.60
2022-09-22T15:30:39.147Z,5.13
2022-09-22T15:33:24.651Z,5.25
2022-09-22T15:36:22.804Z,6.05
2022-09-22T15:39:20.530Z,3.00
2022-09-22T15:42:09.757Z,4.13
2022-09-22T15:44:56.857Z,4.00
2022-09-22T15:47:44.727Z,3.58
2022-09-22T15:50:30.620Z,4.55
2022-09-22T15:53:18.626Z,6.43
2022-09-22T15:56:09.200Z,8.50
2022-09-22T15:58:58.255Z,3.08
2022-09-22T16:01:45.799Z,5.47
2022-09-22T16:04:34.290Z,5.00
2022-09-22T16:07:20.547Z,3.78
2022-09-22T16:10:05.762Z,7.18
2022-09-22T16:12:51.114Z,3.90
2022-09-22T16:15:36.523Z,6.60
2022-09-22T16:18:22.274Z,3.97
2022-09-22T16:21:17.286Z,7.35
2022-09-22T16:24:08.288Z,7.57
2022-09-22T16:26:54.185Z,5.50
2022-09-22T16:29:39.492Z,8.23
2022-09-22T16:32:26.198Z,4.13
2022-09-22T16:35:12.155Z,4.15
2022-09-22T16:37:57.260Z,7.97
2022-09-22T16:40:42.838Z,4.45
2022-09-22T16:43:28.386Z,6.40
2022-09-22T16:46:27.190Z,3.60
2022-09-22T16:49:16.036Z,4.03
2022-09-22T16:52:01.597Z,6.38
2022-09-22T16:54:49.539Z,4.32
2022-09-22T16:57:34.895Z,5.32
2022-09-22T17:00:20.224Z,7.40
2022-09-22T17:03:05.636Z,7.10
2022-09-22T17:06:01.770Z,3.95
2022-09-22T17:08:52.732Z,6.78
2022-09-22T17:11:41.770Z,5.32
2022-09-22T17:14:27.899Z,5.57
2022-09-22T17:17:13.746Z,6.95
2022-09-22T17:19:59.541Z,4.43
2022-09-22T17:22:46.879Z,5.93
2022-09-22T17:25:32.231Z,7.75
2022-09-22T17:28:17.699Z,11.98
2022-09-22T17:31:06.987Z,5.28
2022-09-22T17:33:55.255Z,5.38
2022-09-22T17:36:40.875Z,5.20
2022-09-22T17:39:28.686Z,6.57
2022-09-22T17:42:15.423Z,9.90
2022-09-22T17:45:01.171Z,5.65
2022-09-22T17:48:04.999Z,11.48
2022-09-22T17:51:09.068Z,9.73
2022-09-22T17:54:16.135Z,8.02
2022-09-22T17:57:01.422Z,7.25
2022-09-22T17:59:47.363Z,5.30
2022-09-22T18:02:36.702Z,8.50
2022-09-22T18:05:26.856Z,7.60
2022-09-22T18:08:18.066Z,9.02
2022-09-22T18:11:03.815Z,11.63
2022-09-22T18:13:50.534Z,8.85
2022-09-22T18:16:36.167Z,15.40
2022-09-22T18:19:21.767Z,6.47
2022-09-22T18:22:10.815Z,7.80
2022-09-22T18:24:56.471Z,8.00
2022-09-22T18:27:42.108Z,12.45
2022-09-22T18:30:28.248Z,6.07
2022-09-22T18:33:14.200Z,11.48
2022-09-22T18:35:59.427Z,9.65
2022-09-22T18:38:45.201Z,7.80
2022-09-22T18:41:32.523Z,8.02
2022-09-22T18:44:19.259Z,7.60
2022-09-22T18:47:05.741Z,7.47
2022-09-22T18:49:54.284Z,7.80
2022-09-22T18:52:45.831Z,5.90
2022-09-22T18:55:34.789Z,11.38
2022-09-22T18:58:20.775Z,14.00
2022-09-22T19:01:06.171Z,11.82
2022-09-22T19:03:52.175Z,10.32
2022-09-22T19:06:55.811Z,7.05
2022-09-22T19:09:41.956Z,8.15
2022-09-22T19:12:27.275Z,7.70
2022-09-22T19:15:15.073Z,10.40
2022-09-22T19:18:06.216Z,7.43
2022-09-22T19:20:51.390Z,8.63
2022-09-22T19:23:41.580Z,10.68
2022-09-22T19:26:28.187Z,10.98
2022-09-22T19:29:13.591Z,13.63
2022-09-22T19:32:03.209Z,10.10
2022-09-22T19:34:52.505Z,7.85
2022-09-22T19:37:38.016Z,11.07
2022-09-22T19:40:25.233Z,12.93
2022-09-22T19:43:10.652Z,8.38
2022-09-22T19:45:56.079Z,8.23
2022-09-22T19:48:44.588Z,8.52
2022-09-22T19:51:31.759Z,13.57
2022-09-22T19:54:16.975Z,10.25
2022-09-22T19:57:02.592Z,11.23
2022-09-22T19:59:48.546Z,12.82
2022-09-22T20:02:33.612Z,6.10
2022-09-22T20:05:21.527Z,8.13
2022-09-22T20:08:15.965Z,8.00
2022-09-22T20:11:26.380Z,11.18
2022-09-22T20:14:22.750Z,11.52
2022-09-22T20:17:09.057Z,9.23
2022-09-22T20:19:55.227Z,6.72
2022-09-22T20:22:42.006Z,10.02
2022-09-22T20:25:29.939Z,8.57
2022-09-22T20:28:15.203Z,10.55
2022-09-22T20:31:01.823Z,12.30
2022-09-22T20:33:48.521Z,14.23
2022-09-22T20:36:37.071Z,10.50
2022-09-22T20:39:23.027Z,9.90
2022-09-22T20:42:08.939Z,11.30
2022-09-22T20:44:55.006Z,9.15
2022-09-22T20:47:40.427Z,11.75
2022-09-22T20:50:28.919Z,9.10
2022-09-22T20:53:14.358Z,17.33
2022-09-22T20:56:11.647Z,9.23
2022-09-22T20:58:57.056Z,13.05
2022-09-22T21:01:42.329Z,9.75
2022-09-22T21:04:29.082Z,9.85
2022-09-22T21:07:17.036Z,10.90
2022-09-22T21:10:20.704Z,12.23
2022-09-22T21:13:06.417Z,13.32
2022-09-22T21:16:03.609Z,15.52
2022-09-22T21:18:51.573Z,14.55
2022-09-22T21:21:39.547Z,13.75
2022-09-22T21:24:29.451Z,13.98
2022-09-22T21:27:15.237Z,12.40
2022-09-22T21:30:00.433Z,14.52
2022-09-22T21:32:46.304Z,11.50
2022-09-22T21:35:31.753Z,17.08
2022-09-22T21:38:17.361Z,13.57
2022-09-22T21:41:08.266Z,12.93
2022-09-22T21:43:57.367Z,15.35
2022-09-22T21:46:44.230Z,13.65
2022-09-22T21:49:29.976Z,15.15
2022-09-22T21:52:16.363Z,14.82
2022-09-22T21:55:02.022Z,16.17
2022-09-22T21:57:47.732Z,15.52
2022-09-22T22:00:51.279Z,16.20
2022-09-22T22:03:42.357Z,11.80
2022-09-22T22:06:34.465Z,12.63
2022-09-22T22:09:22.374Z,12.68
2022-09-22T22:12:09.280Z,15.90
2022-09-22T22:14:57.925Z,11.52
2022-09-22T22:17:43.618Z,12.55
2022-09-22T22:20:30.184Z,15.60
2022-09-22T22:23:15.377Z,14.05
2022-09-22T22:26:09.917Z,12.02
2022-09-22T22:28:55.055Z,10.85
2022-09-22T22:31:44.390Z,14.07
2022-09-22T22:34:30.384Z,14.02
2022-09-22T22:37:16.432Z,13.18
2022-09-22T22:40:01.783Z,12.75
2022-09-22T22:42:47.581Z,14.25
2022-09-22T22:45:32.740Z,12.40
2022-09-22T22:48:18.359Z,16.20
2022-09-22T22:51:09.066Z,11.85
2022-09-22T22:53:57.372Z,11.93
2022-09-22T22:56:45.073Z,10.75
2022-09-22T22:59:36.127Z,13.38
2022-09-22T23:02:25.539Z,11.25
2022-09-22T23:05:12.079Z,11.73
2022-09-22T23:07:57.536Z,14.90
2022-09-22T23:10:43.217Z,10.93
2022-09-22T23:13:38.116Z,13.88
2022-09-22T23:16:26.469Z,13.23
2022-09-22T23:19:14.442Z,14.68
2022-09-22T23:22:02.211Z,14.82
2022-09-22T23:24:48.864Z,18.75
2022-09-22T23:27:34.931Z,12.80
2022-09-22T23:30:20.515Z,11.50
2022-09-22T23:33:06.651Z,15.73
2022-09-22T23:35:59.763Z,15.25
2022-09-22T23:38:45.046Z,14.65
2022-09-22T23:41:31.687Z,16.52
2022-09-22T23:44:16.975Z,12.68
2022-09-22T23:47:03.001Z,12.23
2022-09-22T23:49:48.192Z,14.40
2022-09-22T23:52:33.713Z,19.35
2022-09-22T23:55:19.227Z,13.98
2022-09-22T23:58:08.076Z,16.38
